Time;durP1;ratioP1;P1;durP2;ratioP2;P2;SDS_P1;SDS_P2;PMS_P1;PMS_P2;Temp;Humidity;BMP_temperature;BMP_pressure;BME280_temperature;BME280_humidity;BME280_pressure;Samples;Min_cycle;Max_cycle;Signal;HPM_P1;HPM_P2
2022/12/31 00:00:15;;;;;;;18.20;10.80;;;;;;;3.87;100.00;99204.83;104770;1289;23033;-28
2022/12/31 00:02:41;;;;;;;22.30;12.10;;;;;;;3.99;100.00;99209.23;104866;1292;25527;-33
2022/12/31 00:05:07;;;;;;;29.40;10.90;;;;;;;4.07;100.00;99204.66;104824;1292;24419;-33
2022/12/31 00:07:34;;;;;;;19.40;10.40;;;;;;;4.13;100.00;99201.65;104810;1303;23030;-29
2022/12/31 00:10:01;;;;;;;18.90;9.60;;;;;;;4.19;100.00;99196.52;104783;1303;24296;-29
2022/12/31 00:12:26;;;;;;;25.10;11.40;;;;;;;4.24;100.00;99203.91;104764;1289;22642;-33
2022/12/31 00:14:52;;;;;;;22.30;10.70;;;;;;;4.30;100.00;99193.05;104739;1291;22559;-39
2022/12/31 00:17:18;;;;;;;9.80;6.10;;;;;;;4.36;100.00;99192.03;104868;1292;24295;-30
2022/12/31 00:19:44;;;;;;;17.50;11.00;;;;;;;4.45;100.00;99187.58;104692;1299;22806;-33
2022/12/31 00:22:09;;;;;;;18.10;9.00;;;;;;;4.55;100.00;99193.55;104807;1290;22825;-30
2022/12/31 00:24:35;;;;;;;17.00;9.00;;;;;;;4.58;100.00;99185.41;104764;1289;23457;-34
2022/12/31 00:27:01;;;;;;;20.60;11.60;;;;;;;4.69;100.00;99193.50;104695;1292;22664;-33
2022/12/31 00:29:27;;;;;;;18.10;8.80;;;;;;;4.71;100.00;99190.13;104674;1292;24410;-30
2022/12/31 00:31:52;;;;;;;13.60;8.00;;;;;;;4.76;100.00;99183.90;104774;1298;23042;-30
2022/12/31 00:34:18;;;;;;;15.30;7.60;;;;;;;4.82;100.00;99173.27;104675;1292;24404;-33
2022/12/31 00:36:44;;;;;;;20.00;9.40;;;;;;;4.88;100.00;99178.13;104690;1303;22803;-34
2022/12/31 00:39:10;;;;;;;21.80;10.50;;;;;;;4.94;100.00;99187.42;104828;1292;23042;-33
2022/12/31 00:41:36;;;;;;;20.10;9.40;;;;;;;4.98;100.00;99188.77;104784;1291;23140;-30
2022/12/31 00:44:02;;;;;;;20.30;10.00;;;;;;;5.06;100.00;99197.84;104786;1292;22815;-33
2022/12/31 00:46:28;;;;;;;14.80;8.10;;;;;;;5.09;100.00;99194.85;104671;1293;23037;-34
2022/12/31 00:48:54;;;;;;;18.90;7.60;;;;;;;5.15;100.00;99202.36;104878;1295;24295;-31
2022/12/31 00:51:22;;;;;;;16.80;8.40;;;;;;;5.13;100.00;99194.98;104714;1292;23034;-35
2022/12/31 00:53:48;;;;;;;13.00;7.80;;;;;;;5.12;100.00;99197.06;104772;1289;23039;-31
2022/12/31 00:56:19;;;;;;;13.80;7.90;;;;;;;5.05;100.00;99189.64;104856;1292;24431;-34
2022/12/31 00:58:45;;;;;;;15.40;9.00;;;;;;;4.98;100.00;99181.99;104744;1295;22682;-35
2022/12/31 01:01:26;;;;;;;13.60;8.90;;;;;;;4.88;100.00;99183.98;104711;1303;24425;-30
2022/12/31 01:03:54;;;;;;;15.60;9.20;;;;;;;4.79;100.00;99174.19;104632;1292;24312;-30
2022/12/31 01:06:19;;;;;;;18.70;9.30;;;;;;;4.76;100.00;99184.97;104817;1289;22797;-34
2022/12/31 01:08:47;;;;;;;14.50;6.60;;;;;;;4.77;100.00;99184.63;104644;1292;22836;-32
2022/12/31 01:13:43;;;;;;;15.90;10.00;;;;;;;4.84;100.00;99187.81;104764;1292;25351;-31
2022/12/31 01:16:10;;;;;;;13.50;8.10;;;;;;;4.82;100.00;99193.29;104858;1292;24775;-36
2022/12/31 01:18:36;;;;;;;20.50;8.90;;;;;;;4.80;100.00;99195.66;104810;1292;22791;-32
2022/12/31 01:21:04;;;;;;;13.90;8.90;;;;;;;4.80;100.00;99202.04;104681;1300;23169;-31
2022/12/31 01:23:30;;;;;;;17.10;9.40;;;;;;;4.82;100.00;99207.35;104854;1298;23157;-30
2022/12/31 01:25:59;;;;;;;21.20;10.50;;;;;;;4.88;100.00;99208.98;104689;1291;24289;-30
2022/12/31 01:28:25;;;;;;;18.90;10.90;;;;;;;4.95;100.00;99214.28;104730;1286;24237;-30
2022/12/31 01:30:50;;;;;;;16.80;9.30;;;;;;;4.95;100.00;99219.27;104794;1292;24302;-30
2022/12/31 01:33:16;;;;;;;16.30;11.10;;;;;;;4.98;100.00;99228.90;104743;1292;24816;-30
2022/12/31 01:35:42;;;;;;;19.80;8.00;;;;;;;5.00;100.00;99224.01;104750;1303;24304;-31
2022/12/31 01:38:08;;;;;;;8.50;5.80;;;;;;;5.02;100.00;99219.88;104914;1292;23154;-35
2022/12/31 01:40:36;;;;;;;20.30;9.70;;;;;;;5.11;100.00;99223.76;104852;1292;23035;-30
2022/12/31 01:43:02;;;;;;;14.90;7.60;;;;;;;5.12;100.00;99224.55;104759;1292;24400;-30
2022/12/31 01:45:27;;;;;;;14.50;8.00;;;;;;;5.20;100.00;99223.02;104684;1292;23187;-29
2022/12/31 01:47:56;;;;;;;16.90;9.00;;;;;;;5.22;100.00;99228.58;104772;1303;23930;-30
2022/12/31 01:50:28;;;;;;;17.30;10.50;;;;;;;5.26;100.00;99226.42;104770;1288;23917;-30
2022/12/31 01:52:57;;;;;;;14.00;9.70;;;;;;;5.31;100.00;99218.56;104842;1303;24426;-34
2022/12/31 01:55:27;;;;;;;19.30;10.30;;;;;;;5.34;100.00;99221.02;104687;1292;22811;-34
2022/12/31 01:57:56;;;;;;;18.70;9.10;;;;;;;5.43;100.00;99212.48;104881;1292;24419;-29
2022/12/31 02:00:21;;;;;;;11.80;7.20;;;;;;;5.41;100.00;99215.89;104852;1291;24221;-34
2022/12/31 02:02:48;;;;;;;10.90;6.50;;;;;;;5.43;100.00;99211.10;104814;1292;22656;-30
2022/12/31 02:05:30;;;;;;;11.80;7.80;;;;;;;5.44;100.00;99212.36;104928;1292;22827;-31
2022/12/31 02:07:56;;;;;;;22.60;8.90;;;;;;;5.43;100.00;99216.52;104766;1289;22925;-31
2022/12/31 02:10:22;;;;;;;15.30;9.20;;;;;;;5.44;100.00;99206.42;104661;1292;24405;-31
2022/12/31 02:12:47;;;;;;;15.50;9.30;;;;;;;5.48;100.00;99207.95;104713;1289;22807;-30
2022/12/31 02:15:13;;;;;;;13.30;9.00;;;;;;;5.45;100.00;99207.02;104790;1292;22779;-35
2022/12/31 02:17:48;;;;;;;14.80;7.40;;;;;;;5.49;100.00;99201.38;104715;1292;22645;-31
2022/12/31 02:20:37;;;;;;;17.30;9.90;;;;;;;5.49;100.00;99216.79;104723;1292;22783;-28
2022/12/31 02:23:27;;;;;;;22.40;9.30;;;;;;;5.54;100.00;99211.59;104736;1303;22979;-29
2022/12/31 02:26:11;;;;;;;14.10;9.20;;;;;;;5.56;100.00;99208.55;104726;1303;24193;-32
2022/12/31 02:28:58;;;;;;;13.10;5.90;;;;;;;5.62;100.00;99207.47;104716;1289;22885;-30
2022/12/31 02:31:31;;;;;;;17.90;8.60;;;;;;;5.63;100.00;99212.77;104815;1292;22615;-35
2022/12/31 02:34:10;;;;;;;13.90;6.00;;;;;;;5.62;100.00;99219.19;104812;1292;24255;-30
2022/12/31 02:36:37;;;;;;;11.40;7.60;;;;;;;5.66;100.00;99225.21;104677;1293;22698;-30
2022/12/31 02:39:03;;;;;;;12.00;7.90;;;;;;;5.62;100.00;99232.55;104676;1295;23165;-34
2022/12/31 02:43:58;;;;;;;23.50;8.00;;;;;;;5.64;100.00;99234.27;104694;1292;24294;-30
2022/12/31 02:46:30;;;;;;;15.10;7.70;;;;;;;5.67;100.00;99236.45;104757;1292;22797;-30
2022/12/31 02:49:20;;;;;;;14.20;7.40;;;;;;;5.68;100.00;99239.27;104802;1280;22557;-31
2022/12/31 02:52:04;;;;;;;12.30;6.90;;;;;;;5.68;100.00;99241.73;104790;1303;24291;-35
2022/12/31 02:54:54;;;;;;;17.20;8.20;;;;;;;5.69;100.00;99244.43;104831;1292;24304;-35
2022/12/31 02:57:37;;;;;;;13.50;8.30;;;;;;;5.71;100.00;99243.30;104819;1289;24265;-35
2022/12/31 03:02:34;;;;;;;15.90;8.10;;;;;;;5.74;100.00;99240.61;104897;1292;24281;-29
2022/12/31 03:05:00;;;;;;;13.10;8.00;;;;;;;5.79;100.00;99244.30;104878;1299;24300;-33
2022/12/31 03:07:30;;;;;;;14.80;7.60;;;;;;;5.77;100.00;99247.95;104783;1292;22552;-30
2022/12/31 03:09:56;;;;;;;14.60;8.60;;;;;;;5.75;100.00;99254.58;104778;1292;24343;-31
2022/12/31 03:14:53;;;;;;;12.40;7.30;;;;;;;5.83;100.00;99248.04;104918;1289;22571;-35
2022/12/31 03:17:19;;;;;;;13.30;6.00;;;;;;;5.85;100.00;99245.52;104820;1303;22640;-35
2022/12/31 03:27:12;;;;;;;11.90;5.90;;;;;;;5.86;100.00;99240.96;104791;1292;22941;-32
2022/12/31 03:29:38;;;;;;;15.80;7.00;;;;;;;5.88;100.00;99247.13;104770;1293;22802;-35
2022/12/31 03:32:04;;;;;;;8.90;6.10;;;;;;;5.85;100.00;99247.46;104886;1289;24269;-31
2022/12/31 03:34:30;;;;;;;9.70;5.80;;;;;;;5.89;100.00;99243.64;104761;1292;22801;-32
2022/12/31 03:36:56;;;;;;;10.50;7.00;;;;;;;5.91;100.00;99241.83;104841;1289;22817;-35
2022/12/31 03:39:21;;;;;;;15.10;6.90;;;;;;;5.94;100.00;99232.23;104696;1292;24307;-32
2022/12/31 03:41:47;;;;;;;10.10;5.00;;;;;;;5.88;100.00;99241.39;104785;1292;22700;-34
2022/12/31 03:44:13;;;;;;;9.50;6.00;;;;;;;5.90;100.00;99235.20;104670;1303;23160;-34
2022/12/31 03:46:39;;;;;;;7.90;4.90;;;;;;;5.94;100.00;99238.08;104744;1303;24300;-33
2022/12/31 03:49:04;;;;;;;10.30;6.10;;;;;;;5.91;100.00;99255.13;104820;1292;22654;-30
2022/12/31 03:51:30;;;;;;;10.30;5.70;;;;;;;5.99;100.00;99252.66;104727;1289;22647;-34
2022/12/31 03:53:56;;;;;;;12.00;5.90;;;;;;;5.92;100.00;99268.56;104804;1291;23026;-31
2022/12/31 03:56:22;;;;;;;11.70;6.20;;;;;;;5.89;100.00;99267.21;104724;1293;24304;-31
2022/12/31 03:58:48;;;;;;;19.50;7.00;;;;;;;5.93;100.00;99269.34;104902;1293;24263;-34
2022/12/31 04:01:14;;;;;;;12.40;6.50;;;;;;;5.93;100.00;99270.38;104762;1303;22991;-31
2022/12/31 04:03:40;;;;;;;8.70;5.90;;;;;;;5.91;100.00;99265.08;104813;1293;24310;-34
2022/12/31 04:06:06;;;;;;;10.00;5.90;;;;;;;5.96;100.00;99257.07;104685;1292;23161;-30
2022/12/31 04:08:32;;;;;;;10.20;5.60;;;;;;;6.00;100.00;99262.70;104740;1299;22785;-30
2022/12/31 04:10:57;;;;;;;10.20;5.10;;;;;;;6.06;100.00;99269.87;104840;1292;24301;-34
2022/12/31 04:13:23;;;;;;;10.30;4.80;;;;;;;6.03;100.00;99277.45;104832;1292;23025;-30
2022/12/31 04:15:50;;;;;;;11.10;4.70;;;;;;;6.01;100.00;99280.65;104761;1292;23160;-30
2022/12/31 04:18:16;;;;;;;5.60;4.20;;;;;;;6.06;100.00;99272.17;104919;1292;22633;-34
2022/12/31 04:20:42;;;;;;;8.40;5.20;;;;;;;6.11;100.00;99270.59;104797;1301;24429;-33
2022/12/31 04:23:08;;;;;;;9.30;5.40;;;;;;;6.16;100.00;99268.78;104774;1292;22650;-31
2022/12/31 04:25:33;;;;;;;5.40;4.20;;;;;;;6.17;100.00;99263.88;104635;1293;24304;-31
2022/12/31 04:27:59;;;;;;;5.50;3.80;;;;;;;6.16;100.00;99264.31;104658;1295;23153;-31
2022/12/31 04:30:25;;;;;;;6.70;4.20;;;;;;;6.15;100.00;99269.05;104693;1303;23160;-34
2022/12/31 04:32:51;;;;;;;8.60;3.90;;;;;;;6.13;100.00;99268.35;104704;1289;24382;-31
2022/12/31 04:35:18;;;;;;;7.00;4.70;;;;;;;6.10;100.00;99266.96;104703;1303;24516;-31
2022/12/31 05:16:00;;;;;;;7.70;4.20;;;;;;;5.85;100.00;99247.80;104625;1295;557413;-34
2022/12/31 05:18:28;;;;;;;4.90;3.70;;;;;;;5.87;100.00;99258.65;104449;1292;390568;-30
2022/12/31 05:20:55;;;;;;;7.80;4.50;;;;;;;5.87;100.00;99255.18;104979;1293;22802;-34
2022/12/31 05:23:21;;;;;;;6.60;4.10;;;;;;;5.85;100.00;99255.55;104820;1292;22816;-29
2022/12/31 05:25:47;;;;;;;4.10;3.20;;;;;;;5.90;100.00;99259.89;104838;1298;24400;-31
2022/12/31 05:28:13;;;;;;;13.60;4.80;;;;;;;5.87;100.00;99265.30;104846;1293;23047;-34
2022/12/31 05:30:38;;;;;;;5.30;4.00;;;;;;;5.92;100.00;99270.61;104942;1292;22669;-34
2022/12/31 05:33:04;;;;;;;5.90;3.90;;;;;;;5.92;100.00;99269.65;104939;1292;23064;-30
2022/12/31 05:35:30;;;;;;;6.40;2.90;;;;;;;5.82;100.00;99278.70;104772;1292;22990;-35
2022/12/31 05:37:55;;;;;;;4.50;2.70;;;;;;;5.78;100.00;99275.59;104798;1292;23041;-30
2022/12/31 05:40:21;;;;;;;9.50;4.90;;;;;;;5.83;100.00;99266.09;104866;1292;22659;-30
2022/12/31 05:42:48;;;;;;;10.70;4.90;;;;;;;5.88;100.00;99270.17;104762;1302;22802;-30
2022/12/31 05:45:14;;;;;;;5.70;4.10;;;;;;;5.83;100.00;99263.10;104877;1292;22576;-31
2022/12/31 05:47:41;;;;;;;6.00;3.10;;;;;;;5.84;100.00;99265.66;104922;1282;23024;-30
2022/12/31 05:50:10;;;;;;;4.10;3.00;;;;;;;5.77;100.00;99270.02;104859;1299;23147;-34
2022/12/31 05:52:36;;;;;;;4.20;2.80;;;;;;;5.77;100.00;99258.41;104891;1292;22654;-31
2022/12/31 05:55:02;;;;;;;4.50;2.70;;;;;;;5.68;100.00;99268.17;104953;1292;22647;-31
2022/12/31 05:57:28;;;;;;;4.90;2.50;;;;;;;5.72;100.00;99253.52;104924;1290;22576;-34
2022/12/31 05:59:54;;;;;;;8.90;3.60;;;;;;;5.78;100.00;99254.64;104860;1292;22651;-34
2022/12/31 06:02:20;;;;;;;4.50;3.40;;;;;;;5.76;100.00;99268.66;104892;1286;22663;-34
2022/12/31 06:04:46;;;;;;;4.40;2.80;;;;;;;5.67;100.00;99260.95;104947;1292;23033;-30
2022/12/31 06:07:12;;;;;;;3.10;1.70;;;;;;;5.58;100.00;99266.85;104925;1292;22789;-35
2022/12/31 06:09:37;;;;;;;3.70;2.50;;;;;;;5.63;100.00;99264.65;104871;1302;23032;-34
2022/12/31 06:12:04;;;;;;;5.00;2.60;;;;;;;5.64;100.00;99275.14;104724;1302;22676;-30
2022/12/31 06:14:30;;;;;;;3.40;2.00;;;;;;;5.58;100.00;99286.27;104878;1302;23298;-31
2022/12/31 06:16:56;;;;;;;4.20;2.60;;;;;;;5.56;100.00;99286.70;104779;1302;23005;-30
2022/12/31 06:19:21;;;;;;;4.80;3.20;;;;;;;5.61;100.00;99285.27;104527;1301;22660;-34
2022/12/31 06:21:47;;;;;;;3.60;2.20;;;;;;;5.65;100.00;99290.36;104905;1298;23041;-31
2022/12/31 06:24:13;;;;;;;2.30;1.80;;;;;;;5.65;100.00;99282.70;104956;1302;23043;-30
2022/12/31 06:26:39;;;;;;;4.80;2.30;;;;;;;5.71;100.00;99292.16;104807;1302;22657;-37
2022/12/31 06:29:05;;;;;;;5.00;1.80;;;;;;;5.81;100.00;99292.08;104932;1292;23035;-35
2022/12/31 06:31:30;;;;;;;2.50;1.70;;;;;;;5.87;100.00;99296.98;104743;1295;22646;-35
2022/12/31 06:33:56;;;;;;;2.10;1.60;;;;;;;5.99;100.00;99299.88;104880;1292;24432;-33
2022/12/31 06:36:22;;;;;;;2.40;1.10;;;;;;;6.02;100.00;99297.85;104879;1292;23026;-34
2022/12/31 06:38:48;;;;;;;3.20;1.70;;;;;;;6.07;100.00;99301.83;104804;1289;22675;-29
2022/12/31 06:41:17;;;;;;;2.70;1.50;;;;;;;6.13;100.00;99300.92;104871;1292;22666;-30
2022/12/31 06:43:43;;;;;;;3.30;1.70;;;;;;;6.18;100.00;99302.45;104868;1302;22662;-30
2022/12/31 06:46:11;;;;;;;4.70;1.70;;;;;;;6.26;100.00;99294.61;104807;1299;22663;-33
2022/12/31 06:48:37;;;;;;;3.80;1.50;;;;;;;6.34;100.00;99287.69;104804;1292;22784;-35
2022/12/31 06:51:04;;;;;;;2.10;1.50;;;;;;;6.38;100.00;99289.21;104830;1292;22569;-33
2022/12/31 06:53:30;;;;;;;2.10;1.20;;;;;;;6.33;100.00;99290.45;104813;1292;22789;-33
2022/12/31 06:55:57;;;;;;;4.60;1.30;;;;;;;6.42;100.00;99293.20;104906;1289;22984;-33
2022/12/31 06:58:23;;;;;;;1.80;1.00;;;;;;;6.43;100.00;99297.48;104757;1292;22615;-32
2022/12/31 07:00:54;;;;;;;2.60;1.70;;;;;;;6.44;100.00;99299.56;104637;1302;22784;-34
2022/12/31 07:03:32;;;;;;;2.50;1.20;;;;;;;6.49;100.00;99307.88;104861;1302;22555;-34
2022/12/31 07:06:01;;;;;;;1.50;0.90;;;;;;;6.52;100.00;99305.39;104836;1288;22546;-30
2022/12/31 07:08:44;;;;;;;1.40;0.70;;;;;;;6.56;100.00;99310.48;104894;1291;22906;-34
2022/12/31 07:11:17;;;;;;;1.10;0.70;;;;;;;6.62;100.00;99315.00;104833;1292;23157;-30
2022/12/31 07:13:57;;;;;;;0.90;0.80;;;;;;;6.62;100.00;99314.31;104825;1287;26519;-34
2022/12/31 07:16:41;;;;;;;2.20;1.20;;;;;;;6.70;100.00;99314.90;104751;1292;23022;-34
2022/12/31 07:19:25;;;;;;;2.40;1.00;;;;;;;6.72;100.00;99316.20;104859;1282;22637;-34
2022/12/31 07:21:52;;;;;;;1.20;0.90;;;;;;;6.77;100.00;99319.67;104723;1301;22798;-35
2022/12/31 07:24:18;;;;;;;2.20;1.10;;;;;;;6.83;100.00;99314.91;104833;1292;22946;-30
2022/12/31 07:27:03;;;;;;;1.70;1.20;;;;;;;6.85;100.00;99308.65;104806;1298;22556;-34
2022/12/31 07:29:44;;;;;;;1.70;1.00;;;;;;;6.87;100.00;99302.52;104746;1301;22613;-34
2022/12/31 07:32:26;;;;;;;0.80;0.60;;;;;;;6.86;100.00;99291.92;104596;1295;22810;-29
2022/12/31 07:35:00;;;;;;;1.00;0.70;;;;;;;6.97;100.00;99298.38;104710;1301;22573;-33
2022/12/31 07:37:41;;;;;;;0.90;0.70;;;;;;;6.95;100.00;99299.75;104868;1287;22559;-32
2022/12/31 07:40:19;;;;;;;1.40;0.80;;;;;;;6.97;100.00;99295.42;104825;1291;22787;-29
2022/12/31 07:43:16;;;;;;;1.30;0.90;;;;;;;6.99;100.00;99292.09;104840;1292;22556;-33
2022/12/31 07:45:49;;;;;;;1.50;0.80;;;;;;;7.08;100.00;99299.25;104823;1302;22801;-29
2022/12/31 07:48:22;;;;;;;0.70;0.60;;;;;;;7.16;100.00;99307.58;104833;1302;22654;-29
2022/12/31 07:50:49;;;;;;;1.70;0.80;;;;;;;7.23;100.00;99307.13;104865;1292;22503;-29
2022/12/31 07:53:15;;;;;;;1.00;0.60;;;;;;;7.23;100.00;99311.66;104846;1292;22802;-33
2022/12/31 07:55:41;;;;;;;1.20;0.70;;;;;;;7.28;100.00;99322.89;104821;1291;22664;-29
2022/12/31 07:58:19;;;;;;;1.50;0.60;;;;;;;7.21;100.00;99329.38;104797;1292;23070;-29
2022/12/31 08:00:44;;;;;;;2.20;0.80;;;;;;;7.18;100.00;99334.34;104713;1292;22816;-34
2022/12/31 08:03:25;;;;;;;1.50;1.00;;;;;;;7.17;100.00;99338.75;104817;1292;22806;-30
2022/12/31 08:06:13;;;;;;;1.40;0.90;;;;;;;7.14;100.00;99347.84;104747;1302;22660;-31
2022/12/31 08:08:54;;;;;;;2.20;1.00;;;;;;;7.20;100.00;99351.55;104817;1292;22660;-31
2022/12/31 08:11:31;;;;;;;2.20;1.50;;;;;;;7.20;100.00;99346.48;104765;1282;26505;-30
2022/12/31 08:14:00;;;;;;;2.70;1.50;;;;;;;7.22;100.00;99334.67;104809;1292;22875;-33
2022/12/31 08:16:26;;;;;;;2.70;1.90;;;;;;;7.23;100.00;99330.90;104826;1302;23907;-35
2022/12/31 08:18:52;;;;;;;2.60;1.60;;;;;;;7.14;100.00;99325.79;104854;1292;22657;-30
2022/12/31 08:21:33;;;;;;;1.90;0.90;;;;;;;7.16;100.00;99329.85;104872;1295;25436;-35
2022/12/31 08:24:34;;;;;;;2.20;1.10;;;;;;;7.27;100.00;99332.97;104813;1302;22678;-31
2022/12/31 08:27:11;;;;;;;2.80;1.70;;;;;;;7.40;100.00;99327.21;104832;1299;22639;-35
2022/12/31 08:29:54;;;;;;;2.10;1.20;;;;;;;7.46;100.00;99323.45;104857;1291;22821;-31
2022/12/31 08:32:39;;;;;;;1.40;0.80;;;;;;;7.51;100.00;99313.11;104844;1302;22801;-35
2022/12/31 08:35:28;;;;;;;1.70;0.80;;;;;;;7.56;100.00;99327.31;104782;1280;23053;-34
2022/12/31 08:38:16;;;;;;;1.50;1.00;;;;;;;7.64;100.00;99333.88;104839;1292;22808;-35
2022/12/31 08:40:47;;;;;;;1.60;0.70;;;;;;;7.69;100.00;99329.70;104860;1292;23400;-31
2022/12/31 08:43:29;;;;;;;2.00;0.80;;;;;;;7.76;100.00;99328.17;104827;1292;22635;-35
2022/12/31 08:45:54;;;;;;;1.40;0.70;;;;;;;7.83;100.00;99330.30;104793;1288;22904;-31
2022/12/31 08:48:31;;;;;;;1.00;0.90;;;;;;;7.91;100.00;99324.96;104749;1292;23124;-32
2022/12/31 08:50:58;;;;;;;6.00;1.20;;;;;;;8.01;100.00;99316.88;104477;1302;22570;-31
2022/12/31 08:53:24;;;;;;;2.80;1.40;;;;;;;8.07;100.00;99317.27;104724;1302;22798;-35
2022/12/31 08:55:54;;;;;;;3.00;1.30;;;;;;;8.13;100.00;99317.27;104514;1302;23035;-31
2022/12/31 08:58:37;;;;;;;2.10;1.10;;;;;;;8.19;99.95;99316.54;104879;1291;25440;-35
2022/12/31 09:01:03;;;;;;;5.40;2.50;;;;;;;8.24;99.69;99313.93;104718;1302;23083;-31
2022/12/31 09:03:38;;;;;;;2.20;1.20;;;;;;;8.20;99.75;99316.02;104716;1302;23032;-35
2022/12/31 09:06:13;;;;;;;4.60;1.30;;;;;;;8.19;99.85;99314.93;104909;1292;22759;-36
2022/12/31 09:08:50;;;;;;;2.40;1.10;;;;;;;8.25;99.84;99328.31;104847;1295;22566;-32
2022/12/31 09:11:35;;;;;;;1.90;1.50;;;;;;;8.28;99.69;99342.66;104893;1292;22971;-32
2022/12/31 09:14:20;;;;;;;2.70;1.60;;;;;;;8.36;99.21;99351.17;104841;1287;25355;-35
2022/12/31 09:17:09;;;;;;;2.20;1.50;;;;;;;8.43;99.12;99357.92;104801;1292;22796;-33
2022/12/31 09:19:35;;;;;;;3.50;1.60;;;;;;;8.38;99.37;99365.77;104791;1292;22556;-35
2022/12/31 09:22:01;;;;;;;2.40;1.60;;;;;;;8.41;99.92;99375.81;104836;1292;22619;-32
2022/12/31 09:24:28;;;;;;;3.10;2.30;;;;;;;8.45;100.00;99373.23;104909;1287;25268;-37
2022/12/31 09:27:04;;;;;;;3.20;1.50;;;;;;;8.43;100.00;99370.00;104850;1289;22617;-32
2022/12/31 09:29:42;;;;;;;2.30;1.70;;;;;;;8.49;100.00;99359.66;104799;1298;22854;-30
2022/12/31 09:32:20;;;;;;;3.00;1.70;;;;;;;8.53;100.00;99352.92;104855;1283;22552;-36
2022/12/31 09:34:59;;;;;;;3.50;2.00;;;;;;;8.56;100.00;99353.16;104721;1301;24094;-35
2022/12/31 09:37:48;;;;;;;6.60;2.80;;;;;;;8.65;99.97;99352.22;104715;1285;22623;-32
2022/12/31 09:40:33;;;;;;;7.10;2.10;;;;;;;8.72;99.68;99342.44;104712;1302;22678;-35
2022/12/31 09:43:18;;;;;;;3.40;2.40;;;;;;;8.74;99.95;99336.48;104830;1302;22914;-35
2022/12/31 09:46:03;;;;;;;3.10;2.10;;;;;;;8.76;99.93;99326.13;104809;1292;24243;-31
2022/12/31 09:48:47;;;;;;;9.20;1.90;;;;;;;8.82;100.00;99333.04;104852;1298;22805;-35
2022/12/31 09:51:27;;;;;;;3.80;2.20;;;;;;;8.77;100.00;99328.65;104632;1295;25402;-35
2022/12/31 09:54:08;;;;;;;2.90;1.90;;;;;;;8.72;100.00;99318.55;104849;1292;22824;-30
2022/12/31 09:56:35;;;;;;;3.90;2.10;;;;;;;8.79;100.00;99311.98;104820;1292;26531;-31
2022/12/31 09:59:22;;;;;;;2.40;1.40;;;;;;;8.90;100.00;99313.61;104831;1292;22616;-31
2022/12/31 10:01:53;;;;;;;3.20;2.10;;;;;;;8.97;100.00;99319.54;104906;1292;22634;-32
2022/12/31 10:04:34;;;;;;;2.70;1.80;;;;;;;9.06;100.00;99325.80;104681;1289;24499;-36
2022/12/31 10:07:06;;;;;;;2.90;2.30;;;;;;;9.05;100.00;99332.00;104814;1291;24275;-30
2022/12/31 10:09:52;;;;;;;3.40;1.80;;;;;;;9.15;100.00;99329.52;104808;1300;22566;-35
2022/12/31 10:12:32;;;;;;;3.50;1.70;;;;;;;9.25;100.00;99325.34;104852;1302;22563;-36
2022/12/31 10:15:21;;;;;;;3.70;2.20;;;;;;;9.40;99.27;99318.52;104859;1289;23026;-31
2022/12/31 10:18:06;;;;;;;2.30;1.90;;;;;;;9.51;98.97;99313.60;104810;1302;22723;-31
2022/12/31 10:20:49;;;;;;;2.40;2.00;;;;;;;9.68;98.10;99310.26;104827;1302;22678;-31
2022/12/31 10:23:38;;;;;;;3.00;2.30;;;;;;;9.89;97.35;99312.08;104800;1292;22787;-31
2022/12/31 10:26:26;;;;;;;3.00;1.80;;;;;;;10.16;95.98;99298.83;104796;1292;23028;-36
2022/12/31 10:29:08;;;;;;;2.20;1.30;;;;;;;10.35;94.90;99302.12;104773;1302;22776;-36
2022/12/31 10:31:39;;;;;;;3.20;1.60;;;;;;;10.48;94.62;99317.80;104780;1292;22545;-31
2022/12/31 10:34:29;;;;;;;2.80;2.00;;;;;;;10.63;93.27;99307.39;104820;1289;22650;-35
2022/12/31 10:37:02;;;;;;;2.00;1.50;;;;;;;10.83;93.17;99321.41;104893;1292;22664;-35
2022/12/31 10:39:39;;;;;;;;;;;;;;;10.85;91.36;99320.60;104901;1288;25428;-32
2022/12/31 10:42:17;;;;;;;;;;;;;;;10.72;91.92;99330.40;104781;1291;22745;-31
2022/12/31 10:44:54;;;;;;;;;;;;;;;10.68;91.66;99315.10;104805;1289;22533;-37
2022/12/31 10:47:40;;;;;;;;;;;;;;;10.76;91.89;99301.23;104860;1302;22686;-32
2022/12/31 10:50:25;;;;;;;1.20;1.20;;;;;;;10.76;91.54;99299.93;104813;1292;22672;-36
2022/12/31 10:53:01;;;;;;;2.60;1.40;;;;;;;10.80;91.10;99293.65;104839;1291;22567;-32
2022/12/31 10:55:44;;;;;;;5.70;3.30;;;;;;;10.88;90.58;99292.48;104879;1280;24242;-32
2022/12/31 10:58:17;;;;;;;;;;;;;;;10.95;91.13;99295.55;104810;1292;22663;-32
2022/12/31 11:00:48;;;;;;;3.80;1.60;;;;;;;11.02;91.05;99291.14;104807;1283;22815;-32
2022/12/31 11:03:34;;;;;;;3.40;1.70;;;;;;;11.25;89.81;99288.52;104722;1292;22816;-36
2022/12/31 11:45:19;;;;;;;4.60;2.80;;;;;;;10.99;92.49;99266.64;104458;1295;557702;-34
2022/12/31 11:48:08;;;;;;;4.00;2.50;;;;;;;11.01;92.86;99268.94;104274;1294;443840;-31
2022/12/31 11:50:54;;;;;;;3.00;1.50;;;;;;;11.11;92.81;99272.05;104750;1302;23173;-31
2022/12/31 11:53:36;;;;;;;3.40;2.10;;;;;;;11.21;92.41;99277.78;104860;1294;22947;-34
2022/12/31 11:56:11;;;;;;;1.80;1.20;;;;;;;11.18;92.79;99268.97;104929;1288;23164;-35
2022/12/31 11:58:40;;;;;;;3.90;2.60;;;;;;;11.16;92.89;99265.08;104705;1288;22562;-31
2022/12/31 12:01:11;;;;;;;4.70;2.70;;;;;;;11.23;92.58;99262.81;104889;1288;22635;-30
2022/12/31 12:03:41;;;;;;;5.50;2.30;;;;;;;11.25;92.78;99263.64;104838;1290;23039;-31
2022/12/31 12:06:12;;;;;;;3.40;1.90;;;;;;;11.25;92.66;99264.93;104513;1302;22576;-35
2022/12/31 12:08:38;;;;;;;2.60;1.80;;;;;;;11.26;92.75;99262.24;104756;1290;22569;-30
2022/12/31 12:11:06;;;;;;;3.20;1.70;;;;;;;11.35;93.11;99260.12;104778;1291;22799;-31
2022/12/31 12:13:32;;;;;;;5.50;2.20;;;;;;;11.65;92.43;99249.50;104715;1302;22795;-31
2022/12/31 12:15:59;;;;;;;3.10;2.00;;;;;;;11.96;91.63;99248.34;104836;1302;22561;-32
2022/12/31 12:18:28;;;;;;;2.20;1.50;;;;;;;12.24;90.24;99238.56;104922;1288;22564;-34
2022/12/31 12:21:05;;;;;;;4.00;2.20;;;;;;;12.36;88.77;99243.11;104884;1291;24313;-31
2022/12/31 12:23:31;;;;;;;4.50;2.00;;;;;;;12.27;88.60;99236.94;104795;1291;22575;-31
2022/12/31 12:25:57;;;;;;;5.40;2.10;;;;;;;12.39;87.73;99236.45;104772;1291;22672;-31
2022/12/31 12:28:26;;;;;;;2.30;1.50;;;;;;;12.27;88.51;99242.69;104581;1294;22560;-35
2022/12/31 12:30:54;;;;;;;5.50;2.30;;;;;;;12.25;88.88;99247.84;104798;1294;22603;-32
2022/12/31 12:33:20;;;;;;;3.90;2.20;;;;;;;12.26;88.56;99243.04;104766;1298;22805;-31
2022/12/31 12:35:45;;;;;;;2.30;1.40;;;;;;;12.21;88.72;99252.86;104536;1294;22667;-36
2022/12/31 12:38:21;;;;;;;4.20;1.70;;;;;;;12.05;89.40;99247.67;104781;1292;22634;-31
2022/12/31 12:40:55;;;;;;;2.10;1.40;;;;;;;12.05;89.66;99249.98;104717;1292;22563;-31
2022/12/31 12:43:26;;;;;;;3.10;1.20;;;;;;;12.01;90.32;99245.02;104765;1302;24259;-31
2022/12/31 12:45:55;;;;;;;3.00;1.70;;;;;;;12.27;90.03;99255.62;104701;1291;23121;-31
2022/12/31 12:48:29;;;;;;;2.70;1.30;;;;;;;12.40;89.31;99237.23;104724;1302;22735;-35
2022/12/31 12:50:55;;;;;;;2.50;1.20;;;;;;;12.61;88.44;99244.86;104583;1291;22795;-31
2022/12/31 12:53:38;;;;;;;1.70;1.30;;;;;;;12.75;87.95;99237.24;104710;1291;22656;-31
2022/12/31 12:56:18;;;;;;;2.40;1.50;;;;;;;12.87;87.59;99237.90;104836;1302;22802;-32
2022/12/31 12:59:01;;;;;;;3.60;1.70;;;;;;;13.00;86.24;99240.61;104707;1298;23079;-31
2022/12/31 13:01:37;;;;;;;3.50;1.30;;;;;;;13.02;86.00;99239.94;104725;1302;22677;-31
2022/12/31 13:04:37;;;;;;;2.30;1.20;;;;;;;13.05;85.98;99235.89;104560;1302;24382;-32
2022/12/31 13:07:18;;;;;;;2.50;1.20;;;;;;;12.98;85.57;99234.94;104715;1294;22661;-35
2022/12/31 13:09:59;;;;;;;1.80;1.10;;;;;;;12.83;86.61;99249.53;104785;1294;22640;-32
2022/12/31 13:12:37;;;;;;;1.90;1.30;;;;;;;12.71;87.17;99251.11;104696;1291;22662;-36
2022/12/31 13:15:14;;;;;;;2.80;1.50;;;;;;;12.59;87.47;99251.30;104738;1292;22670;-32
2022/12/31 13:18:04;;;;;;;3.90;1.80;;;;;;;12.39;88.19;99256.04;104758;1288;23833;-36
2022/12/31 13:20:44;;;;;;;3.30;1.80;;;;;;;12.20;89.05;99262.63;104755;1288;22669;-36